Terminal Aerodrome Forecast
Issued by NWS

Home | Current Version | Previous Version | Text Only | Print | Product List | Glossary On
Versions: 1 2 3 4 5 6 7 8 9 10 11 12 13 14 15 16 17 18 19 20 21 22 23 24 25 26 27 28 29 30 31 32 33
000
FTUS41 KBOX 292330
TAFBAF
TAF
KBAF 292330Z 3000/3024 VRB03KT P6SM BKN070
     FM300400 VRB03KT 3SM -SN OVC015
     FM300500 VRB03KT 2SM -SN OVC008
     FM301600 28006KT P6SM OVC015
     FM301800 32008KT P6SM OVC025
     FM302200 32012G24KT P6SM BKN035=

USA.gov is the U.S. government's official web portal to all federal, state and local government web resources and services.